sensor_id;sensor_type;location;lat;lon;timestamp;temperature;humidity
16408;DHT22;8313;49.894;8.084;2023-05-07T00:01:37;18.40;99.90
16408;DHT22;8313;49.894;8.084;2023-05-07T00:04:03;18.40;99.90
16408;DHT22;8313;49.894;8.084;2023-05-07T00:06:29;18.40;99.90
16408;DHT22;8313;49.894;8.084;2023-05-07T00:08:56;18.40;99.90
16408;DHT22;8313;49.894;8.084;2023-05-07T00:11:22;18.30;99.90
16408;DHT22;8313;49.894;8.084;2023-05-07T00:13:47;18.30;99.90
16408;DHT22;8313;49.894;8.084;2023-05-07T00:16:13;18.30;99.90
16408;DHT22;8313;49.894;8.084;2023-05-07T00:18:39;18.20;99.90
16408;DHT22;8313;49.894;8.084;2023-05-07T00:21:05;18.20;99.90
16408;DHT22;8313;49.894;8.084;2023-05-07T00:23:30;18.20;99.90
16408;DHT22;8313;49.894;8.084;2023-05-07T00:25:56;18.10;99.90
16408;DHT22;8313;49.894;8.084;2023-05-07T00:28:22;18.10;99.90
16408;DHT22;8313;49.894;8.084;2023-05-07T00:30:47;18.10;99.90
16408;DHT22;8313;49.894;8.084;2023-05-07T00:33:13;18.10;99.90
16408;DHT22;8313;49.894;8.084;2023-05-07T00:35:39;18.10;99.90
16408;DHT22;8313;49.894;8.084;2023-05-07T00:38:04;18.00;99.90
16408;DHT22;8313;49.894;8.084;2023-05-07T00:40:30;18.10;99.90
16408;DHT22;8313;49.894;8.084;2023-05-07T00:42:55;18.00;99.90
16408;DHT22;8313;49.894;8.084;2023-05-07T00:45:26;18.00;99.90
16408;DHT22;8313;49.894;8.084;2023-05-07T00:47:57;17.90;99.90
16408;DHT22;8313;49.894;8.084;2023-05-07T00:50:25;18.00;99.90
16408;DHT22;8313;49.894;8.084;2023-05-07T00:52:52;18.00;99.90
16408;DHT22;8313;49.894;8.084;2023-05-07T00:55:22;18.00;99.90
16408;DHT22;8313;49.894;8.084;2023-05-07T00:57:48;17.90;99.90
16408;DHT22;8313;49.894;8.084;2023-05-07T01:00:15;17.90;99.90
16408;DHT22;8313;49.894;8.084;2023-05-07T01:02:42;17.90;99.90
16408;DHT22;8313;49.894;8.084;2023-05-07T01:05:13;17.90;99.90
16408;DHT22;8313;49.894;8.084;2023-05-07T01:07:40;17.80;99.90
16408;DHT22;8313;49.894;8.084;2023-05-07T01:10:07;17.80;99.90
16408;DHT22;8313;49.894;8.084;2023-05-07T01:12:35;17.80;99.90
16408;DHT22;8313;49.894;8.084;2023-05-07T01:15:03;17.80;99.90
16408;DHT22;8313;49.894;8.084;2023-05-07T01:17:33;17.80;99.90
16408;DHT22;8313;49.894;8.084;2023-05-07T01:19:59;17.70;99.90
16408;DHT22;8313;49.894;8.084;2023-05-07T01:22:33;17.60;99.90
16408;DHT22;8313;49.894;8.084;2023-05-07T01:24:59;17.60;99.90
16408;DHT22;8313;49.894;8.084;2023-05-07T01:27:27;17.50;99.90
16408;DHT22;8313;49.894;8.084;2023-05-07T01:29:53;17.40;99.90
16408;DHT22;8313;49.894;8.084;2023-05-07T01:32:24;17.40;99.90
16408;DHT22;8313;49.894;8.084;2023-05-07T01:34:53;17.40;99.90
16408;DHT22;8313;49.894;8.084;2023-05-07T01:37:20;17.30;99.90
16408;DHT22;8313;49.894;8.084;2023-05-07T01:39:46;17.20;99.90
16408;DHT22;8313;49.894;8.084;2023-05-07T01:42:13;17.20;99.90
16408;DHT22;8313;49.894;8.084;2023-05-07T01:44:38;17.20;99.90
16408;DHT22;8313;49.894;8.084;2023-05-07T01:47:06;17.30;99.90
16408;DHT22;8313;49.894;8.084;2023-05-07T01:49:31;17.40;99.90
16408;DHT22;8313;49.894;8.084;2023-05-07T01:51:58;17.40;99.90
16408;DHT22;8313;49.894;8.084;2023-05-07T01:54:27;17.40;99.90
16408;DHT22;8313;49.894;8.084;2023-05-07T01:56:55;17.40;99.90
16408;DHT22;8313;49.894;8.084;2023-05-07T01:59:21;17.40;99.90
16408;DHT22;8313;49.894;8.084;2023-05-07T02:01:47;17.40;99.90
16408;DHT22;8313;49.894;8.084;2023-05-07T02:04:13;17.40;99.90
16408;DHT22;8313;49.894;8.084;2023-05-07T02:06:38;17.30;99.90
16408;DHT22;8313;49.894;8.084;2023-05-07T02:09:06;17.30;99.90
16408;DHT22;8313;49.894;8.084;2023-05-07T02:11:32;17.20;99.90
16408;DHT22;8313;49.894;8.084;2023-05-07T02:13:57;17.20;99.90
16408;DHT22;8313;49.894;8.084;2023-05-07T02:16:23;17.20;99.90
16408;DHT22;8313;49.894;8.084;2023-05-07T02:18:50;17.20;99.90
16408;DHT22;8313;49.894;8.084;2023-05-07T02:21:16;17.20;99.90
16408;DHT22;8313;49.894;8.084;2023-05-07T02:23:42;17.20;99.90
16408;DHT22;8313;49.894;8.084;2023-05-07T02:26:08;17.20;99.90
16408;DHT22;8313;49.894;8.084;2023-05-07T02:28:34;17.20;99.90
16408;DHT22;8313;49.894;8.084;2023-05-07T02:31:04;17.10;99.90
16408;DHT22;8313;49.894;8.084;2023-05-07T02:33:30;17.10;99.90
16408;DHT22;8313;49.894;8.084;2023-05-07T02:35:56;17.10;99.90
16408;DHT22;8313;49.894;8.084;2023-05-07T02:38:22;17.10;99.90
16408;DHT22;8313;49.894;8.084;2023-05-07T02:40:48;17.10;99.90
16408;DHT22;8313;49.894;8.084;2023-05-07T02:43:15;17.10;99.90
16408;DHT22;8313;49.894;8.084;2023-05-07T02:45:44;17.10;99.90
16408;DHT22;8313;49.894;8.084;2023-05-07T02:48:10;17.10;99.90
16408;DHT22;8313;49.894;8.084;2023-05-07T02:50:36;17.00;99.90
16408;DHT22;8313;49.894;8.084;2023-05-07T02:53:01;17.10;99.90
16408;DHT22;8313;49.894;8.084;2023-05-07T02:55:27;17.00;99.90
16408;DHT22;8313;49.894;8.084;2023-05-07T02:57:53;17.00;99.90
16408;DHT22;8313;49.894;8.084;2023-05-07T03:00:20;17.00;99.90
16408;DHT22;8313;49.894;8.084;2023-05-07T03:02:56;17.00;99.90
16408;DHT22;8313;49.894;8.084;2023-05-07T03:05:22;17.00;99.90
16408;DHT22;8313;49.894;8.084;2023-05-07T03:07:47;17.00;99.90
16408;DHT22;8313;49.894;8.084;2023-05-07T03:10:14;17.00;99.90
16408;DHT22;8313;49.894;8.084;2023-05-07T03:12:40;17.00;99.90
16408;DHT22;8313;49.894;8.084;2023-05-07T03:15:07;17.00;99.90
16408;DHT22;8313;49.894;8.084;2023-05-07T03:17:33;17.00;99.90
16408;DHT22;8313;49.894;8.084;2023-05-07T03:19:59;17.00;99.90
16408;DHT22;8313;49.894;8.084;2023-05-07T03:22:25;17.00;99.90
16408;DHT22;8313;49.894;8.084;2023-05-07T03:24:50;17.00;99.90
16408;DHT22;8313;49.894;8.084;2023-05-07T03:27:16;16.90;99.90
16408;DHT22;8313;49.894;8.084;2023-05-07T03:29:42;16.90;99.90
16408;DHT22;8313;49.894;8.084;2023-05-07T03:32:08;16.90;99.90
16408;DHT22;8313;49.894;8.084;2023-05-07T03:34:34;17.00;99.90
16408;DHT22;8313;49.894;8.084;2023-05-07T03:37:00;17.00;99.90
16408;DHT22;8313;49.894;8.084;2023-05-07T03:39:26;16.90;99.90
16408;DHT22;8313;49.894;8.084;2023-05-07T03:41:51;17.00;99.90
16408;DHT22;8313;49.894;8.084;2023-05-07T03:44:17;16.90;99.90
16408;DHT22;8313;49.894;8.084;2023-05-07T03:46:44;16.90;99.90
16408;DHT22;8313;49.894;8.084;2023-05-07T03:49:10;16.90;99.90
16408;DHT22;8313;49.894;8.084;2023-05-07T03:51:36;16.90;99.90
16408;DHT22;8313;49.894;8.084;2023-05-07T03:54:04;16.90;99.90
16408;DHT22;8313;49.894;8.084;2023-05-07T03:56:31;16.90;99.90
16408;DHT22;8313;49.894;8.084;2023-05-07T03:59:00;16.80;99.90
16408;DHT22;8313;49.894;8.084;2023-05-07T04:01:25;16.80;99.90
16408;DHT22;8313;49.894;8.084;2023-05-07T04:03:51;16.90;99.90
16408;DHT22;8313;49.894;8.084;2023-05-07T04:06:17;16.90;99.90
16408;DHT22;8313;49.894;8.084;2023-05-07T04:08:45;16.80;99.90
16408;DHT22;8313;49.894;8.084;2023-05-07T04:11:11;16.80;99.90
16408;DHT22;8313;49.894;8.084;2023-05-07T04:13:37;16.70;99.90
16408;DHT22;8313;49.894;8.084;2023-05-07T04:16:05;16.70;99.90
16408;DHT22;8313;49.894;8.084;2023-05-07T04:18:34;16.70;99.90
16408;DHT22;8313;49.894;8.084;2023-05-07T04:20:59;16.70;99.90
16408;DHT22;8313;49.894;8.084;2023-05-07T04:23:25;16.70;99.90
16408;DHT22;8313;49.894;8.084;2023-05-07T04:25:52;16.70;99.90
16408;DHT22;8313;49.894;8.084;2023-05-07T04:28:23;16.60;99.90
16408;DHT22;8313;49.894;8.084;2023-05-07T04:30:50;16.60;99.90
16408;DHT22;8313;49.894;8.084;2023-05-07T04:33:16;16.60;99.90
16408;DHT22;8313;49.894;8.084;2023-05-07T04:35:43;16.70;99.90
16408;DHT22;8313;49.894;8.084;2023-05-07T04:38:09;16.70;99.90
16408;DHT22;8313;49.894;8.084;2023-05-07T04:40:36;16.70;99.90
16408;DHT22;8313;49.894;8.084;2023-05-07T04:43:02;16.70;99.90
16408;DHT22;8313;49.894;8.084;2023-05-07T04:45:31;16.70;99.90
16408;DHT22;8313;49.894;8.084;2023-05-07T04:47:57;16.70;99.90
16408;DHT22;8313;49.894;8.084;2023-05-07T04:50:23;16.70;99.90
16408;DHT22;8313;49.894;8.084;2023-05-07T04:52:52;16.80;99.90
16408;DHT22;8313;49.894;8.084;2023-05-07T04:55:18;16.70;99.90
16408;DHT22;8313;49.894;8.084;2023-05-07T04:57:43;16.70;99.90
16408;DHT22;8313;49.894;8.084;2023-05-07T05:00:12;16.70;99.90
16408;DHT22;8313;49.894;8.084;2023-05-07T05:02:44;16.60;99.90
16408;DHT22;8313;49.894;8.084;2023-05-07T05:05:12;16.60;99.90
16408;DHT22;8313;49.894;8.084;2023-05-07T05:07:38;16.70;99.90
16408;DHT22;8313;49.894;8.084;2023-05-07T05:10:05;16.70;99.90
16408;DHT22;8313;49.894;8.084;2023-05-07T05:12:34;16.70;99.90
16408;DHT22;8313;49.894;8.084;2023-05-07T05:15:00;16.70;99.90
16408;DHT22;8313;49.894;8.084;2023-05-07T05:17:27;16.60;99.90
16408;DHT22;8313;49.894;8.084;2023-05-07T05:19:53;16.60;99.90
16408;DHT22;8313;49.894;8.084;2023-05-07T05:22:19;16.70;99.90
16408;DHT22;8313;49.894;8.084;2023-05-07T05:24:44;16.70;99.90
16408;DHT22;8313;49.894;8.084;2023-05-07T05:27:10;16.70;99.90
16408;DHT22;8313;49.894;8.084;2023-05-07T05:29:36;16.60;99.90
16408;DHT22;8313;49.894;8.084;2023-05-07T05:32:02;16.70;99.90
16408;DHT22;8313;49.894;8.084;2023-05-07T05:34:29;16.70;99.90
16408;DHT22;8313;49.894;8.084;2023-05-07T05:36:55;16.70;99.90
16408;DHT22;8313;49.894;8.084;2023-05-07T05:39:22;16.70;99.90
16408;DHT22;8313;49.894;8.084;2023-05-07T05:41:48;16.80;99.90
16408;DHT22;8313;49.894;8.084;2023-05-07T05:44:14;16.80;99.90
16408;DHT22;8313;49.894;8.084;2023-05-07T05:46:42;16.80;99.90
16408;DHT22;8313;49.894;8.084;2023-05-07T05:49:07;16.70;99.90
16408;DHT22;8313;49.894;8.084;2023-05-07T05:51:34;16.80;99.90
16408;DHT22;8313;49.894;8.084;2023-05-07T05:53:59;16.80;99.90
16408;DHT22;8313;49.894;8.084;2023-05-07T05:56:25;16.80;99.90
16408;DHT22;8313;49.894;8.084;2023-05-07T05:58:51;16.90;99.90
16408;DHT22;8313;49.894;8.084;2023-05-07T06:01:18;16.90;99.90
16408;DHT22;8313;49.894;8.084;2023-05-07T06:03:44;16.80;99.90
16408;DHT22;8313;49.894;8.084;2023-05-07T06:06:13;16.90;99.90
16408;DHT22;8313;49.894;8.084;2023-05-07T06:08:42;16.90;99.90
16408;DHT22;8313;49.894;8.084;2023-05-07T06:11:09;16.90;99.90
16408;DHT22;8313;49.894;8.084;2023-05-07T06:13:37;16.90;99.90
16408;DHT22;8313;49.894;8.084;2023-05-07T06:16:03;16.90;99.90
16408;DHT22;8313;49.894;8.084;2023-05-07T06:18:29;16.80;99.90
16408;DHT22;8313;49.894;8.084;2023-05-07T06:20:55;16.90;99.90
16408;DHT22;8313;49.894;8.084;2023-05-07T06:23:25;16.80;99.90
16408;DHT22;8313;49.894;8.084;2023-05-07T06:25:51;16.80;99.90
16408;DHT22;8313;49.894;8.084;2023-05-07T06:28:19;16.90;99.90
16408;DHT22;8313;49.894;8.084;2023-05-07T06:30:45;16.90;99.90
16408;DHT22;8313;49.894;8.084;2023-05-07T06:33:11;16.90;99.90
16408;DHT22;8313;49.894;8.084;2023-05-07T06:35:37;16.90;99.90
16408;DHT22;8313;49.894;8.084;2023-05-07T06:38:03;16.90;99.90
16408;DHT22;8313;49.894;8.084;2023-05-07T06:40:29;16.90;99.90
16408;DHT22;8313;49.894;8.084;2023-05-07T06:42:58;17.00;99.90
16408;DHT22;8313;49.894;8.084;2023-05-07T06:45:47;17.00;99.90
16408;DHT22;8313;49.894;8.084;2023-05-07T06:48:13;17.00;99.90
16408;DHT22;8313;49.894;8.084;2023-05-07T06:50:52;17.00;99.90
16408;DHT22;8313;49.894;8.084;2023-05-07T06:53:18;17.10;99.90
16408;DHT22;8313;49.894;8.084;2023-05-07T06:55:44;17.10;99.90
16408;DHT22;8313;49.894;8.084;2023-05-07T06:58:11;17.10;99.90
16408;DHT22;8313;49.894;8.084;2023-05-07T07:00:37;17.10;99.90
16408;DHT22;8313;49.894;8.084;2023-05-07T07:03:03;17.10;99.90
16408;DHT22;8313;49.894;8.084;2023-05-07T07:05:29;17.10;99.90
16408;DHT22;8313;49.894;8.084;2023-05-07T07:07:56;17.10;99.90
16408;DHT22;8313;49.894;8.084;2023-05-07T07:10:22;17.10;99.90
16408;DHT22;8313;49.894;8.084;2023-05-07T07:12:49;17.10;99.90
16408;DHT22;8313;49.894;8.084;2023-05-07T07:15:16;17.10;99.90
16408;DHT22;8313;49.894;8.084;2023-05-07T07:17:42;17.20;99.90
16408;DHT22;8313;49.894;8.084;2023-05-07T07:20:08;17.10;99.90
16408;DHT22;8313;49.894;8.084;2023-05-07T07:22:34;17.20;99.90
16408;DHT22;8313;49.894;8.084;2023-05-07T07:25:00;17.20;99.90
16408;DHT22;8313;49.894;8.084;2023-05-07T07:27:25;17.20;99.90
16408;DHT22;8313;49.894;8.084;2023-05-07T07:29:51;17.20;99.90
16408;DHT22;8313;49.894;8.084;2023-05-07T07:32:17;17.30;99.90
16408;DHT22;8313;49.894;8.084;2023-05-07T07:34:43;17.30;99.90
16408;DHT22;8313;49.894;8.084;2023-05-07T07:37:09;17.30;99.90
16408;DHT22;8313;49.894;8.084;2023-05-07T07:39:36;17.30;99.90
16408;DHT22;8313;49.894;8.084;2023-05-07T07:42:03;17.30;99.90
16408;DHT22;8313;49.894;8.084;2023-05-07T07:44:30;17.30;99.90
16408;DHT22;8313;49.894;8.084;2023-05-07T07:47:00;17.30;99.90
16408;DHT22;8313;49.894;8.084;2023-05-07T07:49:26;17.40;99.90
16408;DHT22;8313;49.894;8.084;2023-05-07T07:51:53;17.30;99.90
16408;DHT22;8313;49.894;8.084;2023-05-07T07:54:18;17.40;99.90
16408;DHT22;8313;49.894;8.084;2023-05-07T07:56:44;17.40;99.90
16408;DHT22;8313;49.894;8.084;2023-05-07T07:59:11;17.50;99.90
16408;DHT22;8313;49.894;8.084;2023-05-07T08:01:40;17.50;99.90
16408;DHT22;8313;49.894;8.084;2023-05-07T08:04:06;17.50;99.90
16408;DHT22;8313;49.894;8.084;2023-05-07T08:06:36;17.50;99.90
16408;DHT22;8313;49.894;8.084;2023-05-07T08:09:02;17.50;99.90
16408;DHT22;8313;49.894;8.084;2023-05-07T08:11:28;17.60;99.90
16408;DHT22;8313;49.894;8.084;2023-05-07T08:13:55;17.60;99.90
16408;DHT22;8313;49.894;8.084;2023-05-07T08:16:21;17.60;99.90
16408;DHT22;8313;49.894;8.084;2023-05-07T08:18:47;17.70;99.90
16408;DHT22;8313;49.894;8.084;2023-05-07T08:21:13;17.70;99.90
16408;DHT22;8313;49.894;8.084;2023-05-07T08:23:39;17.70;99.90
16408;DHT22;8313;49.894;8.084;2023-05-07T08:26:07;17.70;99.90
16408;DHT22;8313;49.894;8.084;2023-05-07T08:28:35;17.70;99.90
16408;DHT22;8313;49.894;8.084;2023-05-07T08:31:01;17.80;99.90
16408;DHT22;8313;49.894;8.084;2023-05-07T08:33:29;17.80;99.90
16408;DHT22;8313;49.894;8.084;2023-05-07T08:35:56;17.90;99.90
16408;DHT22;8313;49.894;8.084;2023-05-07T08:38:22;17.90;99.90
16408;DHT22;8313;49.894;8.084;2023-05-07T08:40:48;17.90;99.90
16408;DHT22;8313;49.894;8.084;2023-05-07T08:43:18;17.90;99.90
16408;DHT22;8313;49.894;8.084;2023-05-07T08:45:45;18.00;99.90
16408;DHT22;8313;49.894;8.084;2023-05-07T08:48:16;18.00;99.90
16408;DHT22;8313;49.894;8.084;2023-05-07T08:50:45;18.00;99.90
16408;DHT22;8313;49.894;8.084;2023-05-07T08:53:12;18.10;99.90
16408;DHT22;8313;49.894;8.084;2023-05-07T08:55:38;18.20;99.90
16408;DHT22;8313;49.894;8.084;2023-05-07T08:58:04;18.10;99.90
16408;DHT22;8313;49.894;8.084;2023-05-07T09:00:32;18.20;99.90
16408;DHT22;8313;49.894;8.084;2023-05-07T09:03:00;18.30;99.90
16408;DHT22;8313;49.894;8.084;2023-05-07T09:05:26;18.30;99.90
16408;DHT22;8313;49.894;8.084;2023-05-07T09:07:52;18.30;99.90
16408;DHT22;8313;49.894;8.084;2023-05-07T09:10:20;18.40;99.90
16408;DHT22;8313;49.894;8.084;2023-05-07T09:12:46;18.50;99.90
16408;DHT22;8313;49.894;8.084;2023-05-07T09:15:13;18.60;99.90
16408;DHT22;8313;49.894;8.084;2023-05-07T09:17:40;18.70;99.90
16408;DHT22;8313;49.894;8.084;2023-05-07T09:20:08;18.80;99.90
16408;DHT22;8313;49.894;8.084;2023-05-07T09:22:36;18.70;99.90
16408;DHT22;8313;49.894;8.084;2023-05-07T09:25:08;18.80;99.90
16408;DHT22;8313;49.894;8.084;2023-05-07T09:27:36;18.70;99.90
16408;DHT22;8313;49.894;8.084;2023-05-07T09:30:09;18.80;99.90
16408;DHT22;8313;49.894;8.084;2023-05-07T09:32:36;18.80;99.90
16408;DHT22;8313;49.894;8.084;2023-05-07T09:35:19;18.90;99.90
16408;DHT22;8313;49.894;8.084;2023-05-07T09:37:56;19.00;99.90
16408;DHT22;8313;49.894;8.084;2023-05-07T09:40:23;19.10;99.90
16408;DHT22;8313;49.894;8.084;2023-05-07T09:42:50;19.10;99.90
16408;DHT22;8313;49.894;8.084;2023-05-07T09:45:30;19.20;99.90
16408;DHT22;8313;49.894;8.084;2023-05-07T09:47:58;19.20;99.90
16408;DHT22;8313;49.894;8.084;2023-05-07T09:50:32;19.20;99.90
16408;DHT22;8313;49.894;8.084;2023-05-07T09:53:03;19.20;99.90
16408;DHT22;8313;49.894;8.084;2023-05-07T09:55:30;19.40;99.90
16408;DHT22;8313;49.894;8.084;2023-05-07T09:57:57;19.50;99.90
16408;DHT22;8313;49.894;8.084;2023-05-07T10:00:27;19.60;99.90
16408;DHT22;8313;49.894;8.084;2023-05-07T10:03:01;19.60;99.90
16408;DHT22;8313;49.894;8.084;2023-05-07T10:05:37;19.70;99.90
16408;DHT22;8313;49.894;8.084;2023-05-07T10:08:03;19.90;99.90
16408;DHT22;8313;49.894;8.084;2023-05-07T10:10:30;20.00;99.90
16408;DHT22;8313;49.894;8.084;2023-05-07T10:12:57;20.10;99.90
16408;DHT22;8313;49.894;8.084;2023-05-07T10:15:29;20.00;99.90
16408;DHT22;8313;49.894;8.084;2023-05-07T10:17:57;20.10;99.90
16408;DHT22;8313;49.894;8.084;2023-05-07T10:20:24;20.20;99.90
16408;DHT22;8313;49.894;8.084;2023-05-07T10:22:55;20.20;99.90
16408;DHT22;8313;49.894;8.084;2023-05-07T10:25:29;20.50;99.90
16408;DHT22;8313;49.894;8.084;2023-05-07T10:28:01;20.60;99.90
16408;DHT22;8313;49.894;8.084;2023-05-07T10:33:19;20.80;99.90
16408;DHT22;8313;49.894;8.084;2023-05-07T10:35:47;20.80;99.90
16408;DHT22;8313;49.894;8.084;2023-05-07T10:38:14;20.70;99.90
16408;DHT22;8313;49.894;8.084;2023-05-07T10:40:43;20.60;99.90
16408;DHT22;8313;49.894;8.084;2023-05-07T10:43:09;21.00;99.90
16408;DHT22;8313;49.894;8.084;2023-05-07T10:46:16;21.20;99.90
16408;DHT22;8313;49.894;8.084;2023-05-07T10:51:28;21.20;99.90
16408;DHT22;8313;49.894;8.084;2023-05-07T10:56:47;21.20;99.90
16408;DHT22;8313;49.894;8.084;2023-05-07T11:01:56;21.40;99.90
16408;DHT22;8313;49.894;8.084;2023-05-07T11:04:37;21.40;99.90
16408;DHT22;8313;49.894;8.084;2023-05-07T11:07:29;21.10;99.90
16408;DHT22;8313;49.894;8.084;2023-05-07T11:10:01;21.40;99.90
16408;DHT22;8313;49.894;8.084;2023-05-07T11:15:33;21.60;99.90
16408;DHT22;8313;49.894;8.084;2023-05-07T11:18:00;21.60;99.90
16408;DHT22;8313;49.894;8.084;2023-05-07T11:23:55;21.60;99.90
16408;DHT22;8313;49.894;8.084;2023-05-07T11:26:47;21.60;99.90
16408;DHT22;8313;49.894;8.084;2023-05-07T11:29:18;21.70;99.90
16408;DHT22;8313;49.894;8.084;2023-05-07T11:31:52;21.80;99.90
16408;DHT22;8313;49.894;8.084;2023-05-07T11:34:26;21.80;99.90
16408;DHT22;8313;49.894;8.084;2023-05-07T11:36:54;22.00;99.90
16408;DHT22;8313;49.894;8.084;2023-05-07T11:39:30;22.10;99.90
16408;DHT22;8313;49.894;8.084;2023-05-07T11:42:01;22.10;99.90
16408;DHT22;8313;49.894;8.084;2023-05-07T11:44:43;22.00;99.90
16408;DHT22;8313;49.894;8.084;2023-05-07T11:47:16;21.90;99.90
16408;DHT22;8313;49.894;8.084;2023-05-07T11:49:42;21.90;99.90
16408;DHT22;8313;49.894;8.084;2023-05-07T11:52:08;21.90;99.90
16408;DHT22;8313;49.894;8.084;2023-05-07T11:54:39;21.90;99.90
16408;DHT22;8313;49.894;8.084;2023-05-07T11:57:05;22.00;99.90
16408;DHT22;8313;49.894;8.084;2023-05-07T11:59:42;22.20;99.90
16408;DHT22;8313;49.894;8.084;2023-05-07T12:02:10;22.20;99.90
16408;DHT22;8313;49.894;8.084;2023-05-07T12:04:36;22.20;99.90
16408;DHT22;8313;49.894;8.084;2023-05-07T12:07:03;22.20;99.90
16408;DHT22;8313;49.894;8.084;2023-05-07T12:09:28;22.30;99.90
16408;DHT22;8313;49.894;8.084;2023-05-07T12:11:55;22.50;99.90
16408;DHT22;8313;49.894;8.084;2023-05-07T12:14:21;22.60;99.90
16408;DHT22;8313;49.894;8.084;2023-05-07T12:16:47;22.50;99.90
16408;DHT22;8313;49.894;8.084;2023-05-07T12:19:13;22.60;99.90
16408;DHT22;8313;49.894;8.084;2023-05-07T12:21:40;22.60;99.90
16408;DHT22;8313;49.894;8.084;2023-05-07T12:24:06;22.80;99.90
16408;DHT22;8313;49.894;8.084;2023-05-07T12:26:31;22.70;99.90
16408;DHT22;8313;49.894;8.084;2023-05-07T12:28:58;22.70;99.90
16408;DHT22;8313;49.894;8.084;2023-05-07T12:31:26;22.70;99.90
16408;DHT22;8313;49.894;8.084;2023-05-07T12:33:51;22.70;99.90
16408;DHT22;8313;49.894;8.084;2023-05-07T12:36:17;22.70;99.90
16408;DHT22;8313;49.894;8.084;2023-05-07T12:38:43;22.80;99.90
16408;DHT22;8313;49.894;8.084;2023-05-07T12:41:10;22.80;99.90
16408;DHT22;8313;49.894;8.084;2023-05-07T12:43:38;22.90;99.90
16408;DHT22;8313;49.894;8.084;2023-05-07T12:46:05;22.70;99.90
16408;DHT22;8313;49.894;8.084;2023-05-07T12:48:31;22.80;99.90
16408;DHT22;8313;49.894;8.084;2023-05-07T12:51:00;22.90;99.90
16408;DHT22;8313;49.894;8.084;2023-05-07T12:53:26;23.10;99.90
16408;DHT22;8313;49.894;8.084;2023-05-07T12:55:54;23.20;99.90
16408;DHT22;8313;49.894;8.084;2023-05-07T12:58:25;23.20;99.90
16408;DHT22;8313;49.894;8.084;2023-05-07T13:00:53;23.00;99.90
16408;DHT22;8313;49.894;8.084;2023-05-07T13:05:49;23.00;99.90
16408;DHT22;8313;49.894;8.084;2023-05-07T13:08:31;23.00;99.90
16408;DHT22;8313;49.894;8.084;2023-05-07T13:10:58;23.10;99.90
16408;DHT22;8313;49.894;8.084;2023-05-07T13:13:26;23.10;99.90
16408;DHT22;8313;49.894;8.084;2023-05-07T13:15:52;23.10;99.90
16408;DHT22;8313;49.894;8.084;2023-05-07T13:18:17;23.00;99.90
16408;DHT22;8313;49.894;8.084;2023-05-07T13:20:43;23.20;99.90
16408;DHT22;8313;49.894;8.084;2023-05-07T13:23:09;23.10;99.90
16408;DHT22;8313;49.894;8.084;2023-05-07T13:25:34;23.10;99.90
16408;DHT22;8313;49.894;8.084;2023-05-07T13:28:00;23.30;99.90
16408;DHT22;8313;49.894;8.084;2023-05-07T13:30:26;23.50;99.90
16408;DHT22;8313;49.894;8.084;2023-05-07T13:32:55;23.20;99.90
16408;DHT22;8313;49.894;8.084;2023-05-07T13:35:21;23.20;99.90
16408;DHT22;8313;49.894;8.084;2023-05-07T13:37:47;23.30;99.90
16408;DHT22;8313;49.894;8.084;2023-05-07T13:40:15;23.30;99.90
16408;DHT22;8313;49.894;8.084;2023-05-07T13:42:40;23.40;99.90
16408;DHT22;8313;49.894;8.084;2023-05-07T13:45:07;23.50;99.90
16408;DHT22;8313;49.894;8.084;2023-05-07T13:47:34;23.60;99.50
16408;DHT22;8313;49.894;8.084;2023-05-07T13:49:59;23.60;99.90
16408;DHT22;8313;49.894;8.084;2023-05-07T13:52:25;23.60;99.90
16408;DHT22;8313;49.894;8.084;2023-05-07T13:54:51;23.70;99.90
16408;DHT22;8313;49.894;8.084;2023-05-07T13:57:18;23.70;99.90
16408;DHT22;8313;49.894;8.084;2023-05-07T13:59:46;23.50;99.60
16408;DHT22;8313;49.894;8.084;2023-05-07T14:02:16;23.50;99.10
16408;DHT22;8313;49.894;8.084;2023-05-07T14:04:42;23.60;99.20
16408;DHT22;8313;49.894;8.084;2023-05-07T14:07:08;23.60;99.10
16408;DHT22;8313;49.894;8.084;2023-05-07T14:09:34;23.70;99.20
16408;DHT22;8313;49.894;8.084;2023-05-07T14:12:00;23.70;98.70
16408;DHT22;8313;49.894;8.084;2023-05-07T14:14:27;23.70;98.60
16408;DHT22;8313;49.894;8.084;2023-05-07T14:16:52;23.70;99.00
16408;DHT22;8313;49.894;8.084;2023-05-07T14:19:18;23.60;98.60
16408;DHT22;8313;49.894;8.084;2023-05-07T14:21:45;23.70;98.90
16408;DHT22;8313;49.894;8.084;2023-05-07T14:24:10;23.60;98.80
16408;DHT22;8313;49.894;8.084;2023-05-07T14:26:36;23.50;99.20
16408;DHT22;8313;49.894;8.084;2023-05-07T14:29:02;23.50;98.60
16408;DHT22;8313;49.894;8.084;2023-05-07T14:31:28;23.60;98.50
16408;DHT22;8313;49.894;8.084;2023-05-07T14:33:54;23.60;98.70
16408;DHT22;8313;49.894;8.084;2023-05-07T14:36:20;23.70;98.80
16408;DHT22;8313;49.894;8.084;2023-05-07T14:38:47;23.70;98.60
16408;DHT22;8313;49.894;8.084;2023-05-07T14:41:13;23.70;99.00
16408;DHT22;8313;49.894;8.084;2023-05-07T14:43:38;23.70;98.90
16408;DHT22;8313;49.894;8.084;2023-05-07T14:46:04;23.70;99.10
16408;DHT22;8313;49.894;8.084;2023-05-07T14:48:30;23.60;99.40
16408;DHT22;8313;49.894;8.084;2023-05-07T14:50:55;23.60;99.60
16408;DHT22;8313;49.894;8.084;2023-05-07T14:53:22;23.60;99.70
16408;DHT22;8313;49.894;8.084;2023-05-07T14:55:48;23.60;99.70
16408;DHT22;8313;49.894;8.084;2023-05-07T14:58:14;23.60;99.40
16408;DHT22;8313;49.894;8.084;2023-05-07T15:00:40;23.60;99.80
16408;DHT22;8313;49.894;8.084;2023-05-07T15:03:10;23.50;99.60
16408;DHT22;8313;49.894;8.084;2023-05-07T15:05:36;23.60;99.60
16408;DHT22;8313;49.894;8.084;2023-05-07T15:08:02;23.60;99.40
16408;DHT22;8313;49.894;8.084;2023-05-07T15:10:28;23.70;99.50
16408;DHT22;8313;49.894;8.084;2023-05-07T15:12:54;23.70;99.30
16408;DHT22;8313;49.894;8.084;2023-05-07T15:15:19;23.70;99.40
16408;DHT22;8313;49.894;8.084;2023-05-07T15:17:45;23.70;99.20
16408;DHT22;8313;49.894;8.084;2023-05-07T15:20:11;23.70;99.20
16408;DHT22;8313;49.894;8.084;2023-05-07T15:22:36;23.70;99.10
16408;DHT22;8313;49.894;8.084;2023-05-07T15:25:03;23.80;99.20
16408;DHT22;8313;49.894;8.084;2023-05-07T15:27:30;23.70;99.30
16408;DHT22;8313;49.894;8.084;2023-05-07T15:29:57;23.70;98.90
16408;DHT22;8313;49.894;8.084;2023-05-07T15:32:23;23.70;99.00
16408;DHT22;8313;49.894;8.084;2023-05-07T15:34:48;23.70;99.30
16408;DHT22;8313;49.894;8.084;2023-05-07T15:37:14;23.70;99.40
16408;DHT22;8313;49.894;8.084;2023-05-07T15:39:39;23.70;99.20
16408;DHT22;8313;49.894;8.084;2023-05-07T15:42:05;23.70;99.50
16408;DHT22;8313;49.894;8.084;2023-05-07T15:44:31;23.70;99.50
16408;DHT22;8313;49.894;8.084;2023-05-07T15:46:59;23.60;99.40
16408;DHT22;8313;49.894;8.084;2023-05-07T15:49:25;23.60;99.30
16408;DHT22;8313;49.894;8.084;2023-05-07T15:51:51;23.70;99.00
16408;DHT22;8313;49.894;8.084;2023-05-07T15:54:17;23.70;99.00
16408;DHT22;8313;49.894;8.084;2023-05-07T15:56:46;23.70;99.20
16408;DHT22;8313;49.894;8.084;2023-05-07T15:59:11;23.70;99.10
16408;DHT22;8313;49.894;8.084;2023-05-07T16:01:37;23.70;99.20
16408;DHT22;8313;49.894;8.084;2023-05-07T16:04:07;23.70;99.10
16408;DHT22;8313;49.894;8.084;2023-05-07T16:06:33;23.70;99.00